createdAt,value
2018-07-06T00:01:33.625Z,241.15
2018-07-06T00:04:21.501Z,226.75
2018-07-06T00:07:09.128Z,227.15
2018-07-06T00:09:57.035Z,231.40
2018-07-06T00:12:44.819Z,230.60
2018-07-06T00:15:32.423Z,236.30
2018-07-06T00:18:20.467Z,228.70
2018-07-06T00:21:08.181Z,234.15
2018-07-06T00:23:56.088Z,234.90
2018-07-06T00:26:44.363Z,227.82
2018-07-06T00:29:32.350Z,234.25
2018-07-06T00:32:20.277Z,238.15
2018-07-06T00:35:08.263Z,228.73
2018-07-06T00:37:56.762Z,226.15
2018-07-06T00:40:44.689Z,225.82
2018-07-06T00:43:32.452Z,222.33
2018-07-06T00:46:19.976Z,227.07
2018-07-06T00:49:07.905Z,221.70
2018-07-06T00:51:55.998Z,222.67
2018-07-06T00:54:43.654Z,228.45
2018-07-06T00:57:31.527Z,225.32
2018-07-06T01:00:20.327Z,235.00
2018-07-06T01:03:08.395Z,231.25
2018-07-06T01:05:56.360Z,229.18
2018-07-06T01:08:44.207Z,223.97
2018-07-06T01:11:31.985Z,245.78
2018-07-06T01:14:20.391Z,225.05
2018-07-06T01:17:12.368Z,238.57
2018-07-06T01:20:00.425Z,239.70
2018-07-06T01:22:48.224Z,231.30
2018-07-06T01:25:36.212Z,238.95
2018-07-06T01:28:23.968Z,235.48
2018-07-06T01:31:11.911Z,214.65
2018-07-06T01:34:00.270Z,226.62
2018-07-06T01:36:48.245Z,220.80
2018-07-06T01:39:36.003Z,227.75
2018-07-06T01:42:24.083Z,229.80
2018-07-06T01:45:11.971Z,227.70
2018-07-06T01:47:59.784Z,226.45
2018-07-06T01:50:47.682Z,226.20
2018-07-06T01:53:35.544Z,230.72
2018-07-06T01:56:23.373Z,228.65
2018-07-06T01:59:11.292Z,231.15
2018-07-06T02:01:59.195Z,223.97
2018-07-06T02:04:47.028Z,222.45
2018-07-06T02:07:34.795Z,226.67
2018-07-06T02:10:22.735Z,247.30
2018-07-06T02:13:10.736Z,233.87
2018-07-06T02:15:58.756Z,229.90
2018-07-06T02:18:46.826Z,238.35
2018-07-06T02:21:34.764Z,231.23
2018-07-06T02:24:22.695Z,233.75
2018-07-06T02:27:10.305Z,248.45
2018-07-06T02:29:58.034Z,230.20
2018-07-06T02:32:46.035Z,223.43
2018-07-06T02:35:39.819Z,234.18
2018-07-06T02:38:27.447Z,247.85
2018-07-06T02:41:15.352Z,233.70
2018-07-06T02:44:03.119Z,232.15
2018-07-06T02:46:50.892Z,223.87
2018-07-06T02:49:39.107Z,236.95
2018-07-06T02:52:27.068Z,246.18
2018-07-06T02:55:14.622Z,220.88
2018-07-06T02:58:02.261Z,236.30
2018-07-06T03:00:50.124Z,232.85
2018-07-06T03:03:37.912Z,236.87
2018-07-06T03:06:26.010Z,235.17
2018-07-06T03:09:13.524Z,268.05
2018-07-06T03:12:00.919Z,247.98
2018-07-06T03:14:48.483Z,246.62
2018-07-06T03:17:36.604Z,239.63
2018-07-06T03:20:24.481Z,240.60
2018-07-06T03:23:11.983Z,224.00
2018-07-06T03:26:00.133Z,235.90
2018-07-06T03:28:48.399Z,236.82
2018-07-06T03:31:36.131Z,243.10
2018-07-06T03:34:23.722Z,224.62
2018-07-06T03:37:11.538Z,226.10
2018-07-06T03:39:59.269Z,230.43
2018-07-06T03:42:46.655Z,231.07
2018-07-06T03:45:34.602Z,239.65
2018-07-06T03:48:26.488Z,240.97
2018-07-06T03:51:14.495Z,239.15
2018-07-06T03:54:02.261Z,248.07
2018-07-06T03:56:50.008Z,221.70
2018-07-06T03:59:37.591Z,229.13
2018-07-06T04:02:25.902Z,231.00
2018-07-06T04:05:13.673Z,236.15
2018-07-06T04:08:01.719Z,227.20
2018-07-06T04:10:49.380Z,233.60
2018-07-06T04:13:37.064Z,222.82
2018-07-06T04:16:25.265Z,229.45
2018-07-06T04:19:13.427Z,224.47
2018-07-06T04:22:01.097Z,227.80
2018-07-06T04:24:48.639Z,226.20
2018-07-06T04:27:36.283Z,225.53
2018-07-06T04:30:24.122Z,220.75
2018-07-06T04:33:12.040Z,227.30
2018-07-06T04:35:59.809Z,227.30
2018-07-06T04:38:47.676Z,221.50
2018-07-06T04:41:35.373Z,219.97
2018-07-06T04:44:23.301Z,220.10
2018-07-06T04:47:10.821Z,227.18
2018-07-06T04:49:58.548Z,222.70
2018-07-06T04:52:46.248Z,223.85
2018-07-06T04:55:33.808Z,222.05
2018-07-06T04:58:21.699Z,218.40
2018-07-06T05:01:09.396Z,220.48
2018-07-06T05:03:57.007Z,224.42
2018-07-06T05:06:45.222Z,225.85
2018-07-06T05:09:33.086Z,227.35
2018-07-06T05:12:20.668Z,222.22
2018-07-06T05:15:08.440Z,228.83
2018-07-06T05:17:56.391Z,228.37
2018-07-06T05:20:44.265Z,235.45
2018-07-06T05:23:31.981Z,226.30
2018-07-06T05:26:19.775Z,228.55
2018-07-06T05:29:07.637Z,233.20
2018-07-06T05:31:55.603Z,225.47
2018-07-06T05:34:43.460Z,223.15
2018-07-06T05:37:31.307Z,232.00
2018-07-06T05:40:18.918Z,230.43
2018-07-06T05:43:06.783Z,240.92
2018-07-06T05:45:54.186Z,231.43
2018-07-06T05:48:41.770Z,236.03
2018-07-06T05:51:31.567Z,227.45
2018-07-06T05:54:21.146Z,236.87
2018-07-06T05:57:11.796Z,235.20
2018-07-06T06:00:00.463Z,226.00
2018-07-06T06:02:48.495Z,233.23
2018-07-06T06:05:36.870Z,228.55
2018-07-06T06:08:18.165Z,232.67
2018-07-06T06:10:50.136Z,229.80
2018-07-06T06:13:50.110Z,217.10
2018-07-06T06:16:27.332Z,225.68
2018-07-06T06:18:58.643Z,228.73
2018-07-06T06:21:29.998Z,223.53
2018-07-06T06:24:01.294Z,225.82
2018-07-06T06:26:33.115Z,222.05
2018-07-06T06:29:04.352Z,224.45
2018-07-06T06:31:35.677Z,227.65
2018-07-06T06:34:06.908Z,231.02
2018-07-06T06:36:38.251Z,224.47
2018-07-06T06:39:09.670Z,231.80
2018-07-06T06:41:41.580Z,226.02
2018-07-06T06:44:12.852Z,224.22
2018-07-06T06:46:44.518Z,222.10
2018-07-06T06:49:15.825Z,234.15
2018-07-06T06:51:47.789Z,225.05
2018-07-06T06:54:19.122Z,243.70
2018-07-06T06:56:50.291Z,230.05
2018-07-06T06:59:22.019Z,232.80
2018-07-06T07:01:53.589Z,241.55
2018-07-06T07:04:36.264Z,243.78
2018-07-06T07:07:26.733Z,248.15
2018-07-06T07:10:08.463Z,243.80
2018-07-06T07:12:56.694Z,250.00
2018-07-06T07:15:39.290Z,242.87
2018-07-06T07:18:12.257Z,243.55
2018-07-06T07:20:45.263Z,239.00
2018-07-06T07:23:18.094Z,232.30
2018-07-06T07:25:49.565Z,229.07
2018-07-06T07:28:20.887Z,233.60
2018-07-06T07:30:55.380Z,233.93
2018-07-06T07:33:26.767Z,225.45
2018-07-06T07:35:58.310Z,242.72
2018-07-06T07:38:29.772Z,231.82
2018-07-06T07:41:01.119Z,225.15
2018-07-06T07:43:32.586Z,225.10
2018-07-06T07:46:04.505Z,231.07
2018-07-06T07:48:40.665Z,227.18
2018-07-06T07:52:00.785Z,239.27
2018-07-06T07:54:40.018Z,227.80
2018-07-06T07:57:20.011Z,234.25
2018-07-06T08:00:03.705Z,234.57
2018-07-06T08:02:35.116Z,227.10
2018-07-06T08:05:10.516Z,236.60
2018-07-06T08:07:41.721Z,231.40
2018-07-06T08:10:13.207Z,223.60
2018-07-06T08:12:44.436Z,227.95
2018-07-06T08:15:15.738Z,234.05
2018-07-06T08:17:47.046Z,229.40
2018-07-06T08:20:18.544Z,233.95
2018-07-06T08:22:49.832Z,232.20
2018-07-06T08:25:20.967Z,235.28
2018-07-06T08:27:52.523Z,248.18
2018-07-06T08:30:23.957Z,233.02
2018-07-06T08:32:55.534Z,233.13
2018-07-06T08:35:37.316Z,242.43
2018-07-06T08:38:20.155Z,237.80
2018-07-06T08:40:52.004Z,237.27
2018-07-06T08:43:23.696Z,236.75
2018-07-06T08:45:55.446Z,245.70
2018-07-06T08:48:27.359Z,239.45
2018-07-06T08:50:58.908Z,235.28
2018-07-06T08:53:30.640Z,239.42
2018-07-06T08:56:02.070Z,240.45
2018-07-06T08:58:33.509Z,230.45
2018-07-06T09:01:05.122Z,236.90
2018-07-06T09:03:36.455Z,237.68
2018-07-06T09:06:07.942Z,234.95
2018-07-06T09:08:39.955Z,226.07
2018-07-06T09:11:11.539Z,231.50
2018-07-06T09:13:43.119Z,227.78
2018-07-06T09:16:14.808Z,223.10
2018-07-06T09:18:46.368Z,235.97
2018-07-06T09:21:18.156Z,244.75
2018-07-06T09:23:50.185Z,232.03
2018-07-06T09:26:21.744Z,242.82
2018-07-06T09:29:01.435Z,233.97
2018-07-06T09:31:37.754Z,240.47
2018-07-06T09:34:10.732Z,236.72
2018-07-06T09:36:42.352Z,238.03
2018-07-06T09:39:14.389Z,237.48
2018-07-06T09:41:50.544Z,240.25
2018-07-06T09:44:22.828Z,233.70
2018-07-06T09:46:54.396Z,256.32
2018-07-06T09:49:29.094Z,248.25
2018-07-06T09:52:01.014Z,248.60
2018-07-06T09:54:39.541Z,254.75
2018-07-06T09:57:13.588Z,264.32
2018-07-06T09:59:48.869Z,247.98
2018-07-06T10:02:20.583Z,244.60
2018-07-06T10:04:51.864Z,253.58
2018-07-06T10:07:25.004Z,252.80
2018-07-06T10:09:56.468Z,271.62
2018-07-06T10:12:31.404Z,282.17
2018-07-06T10:15:04.076Z,264.60
2018-07-06T10:17:36.246Z,257.48
2018-07-06T10:20:08.617Z,251.90
2018-07-06T10:22:40.589Z,261.37
2018-07-06T10:25:12.675Z,266.52
2018-07-06T10:27:57.562Z,260.23
2018-07-06T10:31:15.349Z,262.30
2018-07-06T10:33:46.960Z,254.85
2018-07-06T10:36:18.268Z,257.55
2018-07-06T10:38:49.836Z,250.18
2018-07-06T10:41:26.095Z,258.00
2018-07-06T10:43:57.847Z,240.80
2018-07-06T10:46:29.196Z,262.12
2018-07-06T10:49:00.525Z,249.98
2018-07-06T10:51:32.881Z,252.03
2018-07-06T10:54:14.306Z,271.05
2018-07-06T10:56:48.778Z,250.62
2018-07-06T10:59:34.199Z,271.68
2018-07-06T11:02:31.797Z,243.93
2018-07-06T11:05:08.755Z,251.55
2018-07-06T11:07:48.424Z,261.85
2018-07-06T11:10:20.391Z,269.52
2018-07-06T11:12:51.992Z,264.90
2018-07-06T11:15:23.565Z,245.93
2018-07-06T11:17:54.797Z,254.38
2018-07-06T11:20:26.484Z,247.33
2018-07-06T11:22:57.987Z,245.10
2018-07-06T11:25:29.840Z,235.55
2018-07-06T11:28:01.137Z,261.37
2018-07-06T11:30:34.404Z,262.45
2018-07-06T11:33:06.291Z,245.40
2018-07-06T11:35:37.640Z,257.85
2018-07-06T11:38:09.221Z,249.12
2018-07-06T11:40:40.541Z,271.75
2018-07-06T11:43:12.032Z,250.60
2018-07-06T11:45:43.601Z,242.22
2018-07-06T11:48:15.065Z,246.13
2018-07-06T11:50:47.311Z,241.45
2018-07-06T11:53:18.701Z,264.55
2018-07-06T11:55:50.218Z,255.20
2018-07-06T11:58:21.777Z,245.82
2018-07-06T12:00:53.274Z,243.97
2018-07-06T12:03:24.634Z,250.75
2018-07-06T12:05:57.385Z,252.62
2018-07-06T12:08:29.362Z,252.93
2018-07-06T12:11:00.836Z,258.73
2018-07-06T12:13:32.452Z,250.78
2018-07-06T12:16:03.971Z,255.10
2018-07-06T12:18:35.431Z,240.57
2018-07-06T12:21:07.066Z,242.97
2018-07-06T12:23:38.578Z,273.05
2018-07-06T12:26:09.834Z,248.57
2018-07-06T12:28:41.244Z,236.70
2018-07-06T12:31:12.619Z,246.95
2018-07-06T12:33:44.143Z,246.82
2018-07-06T12:36:16.064Z,253.55
2018-07-06T12:38:47.939Z,255.03
2018-07-06T12:41:20.502Z,277.95
2018-07-06T12:43:51.969Z,261.70
2018-07-06T12:46:23.318Z,255.03
2018-07-06T12:48:54.494Z,248.05
2018-07-06T12:51:27.559Z,260.38
2018-07-06T12:53:58.945Z,250.22
2018-07-06T12:56:44.227Z,234.62
2018-07-06T12:59:18.683Z,248.15
2018-07-06T13:01:49.990Z,244.35
2018-07-06T13:04:21.359Z,231.75
2018-07-06T13:06:52.734Z,231.63
2018-07-06T13:09:24.157Z,220.88
2018-07-06T13:11:55.583Z,226.52
2018-07-06T13:14:27.042Z,223.28
2018-07-06T13:16:58.827Z,223.97
2018-07-06T13:19:30.556Z,228.18
2018-07-06T13:22:02.574Z,231.55
2018-07-06T13:24:33.874Z,230.50
2018-07-06T13:27:05.169Z,235.32
2018-07-06T13:29:36.765Z,230.85
2018-07-06T13:32:08.222Z,234.30
2018-07-06T13:34:39.803Z,235.02
2018-07-06T13:37:11.152Z,221.85
2018-07-06T13:39:42.731Z,234.80
2018-07-06T13:42:14.529Z,243.15
2018-07-06T13:44:46.045Z,229.35
2018-07-06T13:47:18.156Z,222.50
2018-07-06T13:49:49.647Z,224.62
2018-07-06T13:52:20.983Z,213.47
2018-07-06T13:54:52.502Z,215.92
2018-07-06T13:57:23.920Z,213.45
2018-07-06T13:59:55.296Z,226.50
2018-07-06T14:02:26.540Z,224.65
2018-07-06T14:05:09.809Z,216.65
2018-07-06T14:07:41.357Z,223.43
2018-07-06T14:10:12.909Z,219.77
2018-07-06T14:12:44.504Z,226.70
2018-07-06T14:15:15.963Z,222.95
2018-07-06T14:17:47.425Z,222.67
2018-07-06T14:20:18.851Z,229.05
2018-07-06T14:22:50.314Z,243.02
2018-07-06T14:25:21.666Z,245.93
2018-07-06T14:27:53.026Z,220.15
2018-07-06T14:30:24.343Z,229.85
2018-07-06T14:32:55.698Z,228.12
2018-07-06T14:35:26.837Z,228.55
2018-07-06T14:37:58.688Z,208.78
2018-07-06T14:40:30.043Z,211.97
2018-07-06T14:43:02.435Z,219.13
2018-07-06T14:45:33.805Z,232.15
2018-07-06T14:48:05.252Z,218.15
2018-07-06T14:50:36.680Z,217.70
2018-07-06T14:53:08.087Z,229.13
2018-07-06T14:55:39.577Z,216.35
2018-07-06T14:58:10.897Z,227.20
2018-07-06T15:00:42.343Z,229.38
2018-07-06T15:03:13.772Z,213.60
2018-07-06T15:05:45.611Z,218.42
2018-07-06T15:08:16.990Z,222.48
2018-07-06T15:10:48.456Z,216.85
2018-07-06T15:13:20.024Z,214.70
2018-07-06T15:15:51.457Z,217.13
2018-07-06T15:18:22.895Z,218.80
2018-07-06T15:20:54.133Z,226.47
2018-07-06T15:23:25.341Z,217.72
2018-07-06T15:25:56.674Z,214.20
2018-07-06T15:28:28.165Z,214.45
2018-07-06T15:30:59.526Z,216.57
2018-07-06T15:33:31.195Z,212.95
2018-07-06T15:36:02.628Z,217.25
2018-07-06T15:38:34.239Z,215.12
2018-07-06T15:41:05.709Z,220.12
2018-07-06T15:43:37.391Z,216.55
2018-07-06T15:46:09.169Z,217.13
2018-07-06T15:48:40.600Z,215.22
2018-07-06T15:51:12.328Z,220.57
2018-07-06T15:53:44.056Z,221.62
2018-07-06T15:56:15.413Z,228.70
2018-07-06T15:58:46.934Z,225.78
2018-07-06T16:01:19.204Z,221.93
2018-07-06T16:03:50.454Z,218.93
2018-07-06T16:06:22.901Z,223.15
2018-07-06T16:08:56.539Z,221.85
2018-07-06T16:11:31.368Z,217.90
2018-07-06T16:14:06.924Z,218.52
2018-07-06T16:16:45.893Z,218.85
2018-07-06T16:19:20.325Z,219.55
2018-07-06T16:21:52.357Z,208.43
2018-07-06T16:24:24.743Z,222.70
2018-07-06T16:26:57.283Z,229.45
2018-07-06T16:29:30.354Z,225.47
2018-07-06T16:32:03.403Z,217.68
2018-07-06T16:34:36.679Z,224.65
2018-07-06T16:37:09.611Z,217.93
2018-07-06T16:39:42.279Z,206.10
2018-07-06T16:42:14.457Z,210.13
2018-07-06T16:44:47.148Z,210.45
2018-07-06T16:47:19.140Z,209.03
2018-07-06T16:49:51.298Z,207.07
2018-07-06T16:52:24.083Z,211.12
2018-07-06T16:54:56.739Z,213.18
2018-07-06T16:57:28.135Z,207.80
2018-07-06T16:59:59.522Z,206.75
2018-07-06T17:02:30.900Z,208.95
2018-07-06T17:05:02.114Z,203.10
2018-07-06T17:07:33.572Z,203.00
2018-07-06T17:10:05.013Z,212.10
2018-07-06T17:12:37.185Z,211.45
2018-07-06T17:15:08.520Z,203.70
2018-07-06T17:17:40.259Z,215.55
2018-07-06T17:20:13.122Z,215.37
2018-07-06T17:22:44.473Z,225.90
2018-07-06T17:25:15.837Z,218.27
2018-07-06T17:27:48.469Z,207.20
2018-07-06T17:30:20.039Z,211.82
2018-07-06T17:32:51.664Z,209.55
2018-07-06T17:35:23.064Z,207.80
2018-07-06T17:37:54.792Z,207.90
2018-07-06T17:40:26.428Z,204.45
2018-07-06T17:42:57.585Z,204.45
2018-07-06T17:45:29.085Z,205.62
2018-07-06T17:48:00.693Z,198.02
2018-07-06T17:50:32.092Z,200.93
2018-07-06T17:53:03.498Z,199.10
2018-07-06T17:55:34.973Z,200.62
2018-07-06T17:58:06.317Z,200.87
2018-07-06T18:00:38.704Z,199.12
2018-07-06T18:03:09.925Z,210.05
2018-07-06T18:05:41.349Z,206.97
2018-07-06T18:08:12.855Z,194.82
2018-07-06T18:10:44.646Z,200.45
2018-07-06T18:13:15.939Z,197.13
2018-07-06T18:15:47.542Z,203.25
2018-07-06T18:18:18.805Z,204.93
2018-07-06T18:20:50.340Z,202.60
2018-07-06T18:23:21.963Z,204.93
2018-07-06T18:25:53.626Z,204.95
2018-07-06T18:28:25.913Z,203.40
2018-07-06T18:30:58.950Z,204.75
2018-07-06T18:33:31.126Z,212.38
2018-07-06T18:36:04.614Z,200.87
2018-07-06T18:38:37.230Z,205.92
2018-07-06T18:41:11.109Z,308.30
2018-07-06T18:43:44.811Z,214.95
2018-07-06T18:46:19.429Z,208.40
2018-07-06T18:48:51.460Z,201.40
2018-07-06T18:51:24.310Z,204.15
2018-07-06T18:53:57.256Z,202.07
2018-07-06T18:56:29.100Z,203.62
2018-07-06T18:59:01.140Z,201.47
2018-07-06T19:01:33.711Z,201.12
2018-07-06T19:04:05.680Z,199.25
2018-07-06T19:06:37.959Z,202.78
2018-07-06T19:09:11.388Z,198.53
2018-07-06T19:11:43.182Z,203.92
2018-07-06T19:14:15.392Z,202.10
2018-07-06T19:16:46.889Z,206.65
2018-07-06T19:19:18.454Z,201.80
2018-07-06T19:21:49.996Z,203.42
2018-07-06T19:24:21.552Z,203.90
2018-07-06T19:26:52.955Z,202.93
2018-07-06T19:29:24.318Z,200.32
2018-07-06T19:31:55.794Z,204.20
2018-07-06T19:34:27.340Z,202.95
2018-07-06T19:36:58.648Z,199.15
2018-07-06T19:39:30.263Z,199.25
2018-07-06T19:42:01.809Z,199.68
2018-07-06T19:44:33.118Z,205.25
2018-07-06T19:47:04.369Z,199.97
2018-07-06T19:49:35.781Z,198.93
2018-07-06T19:52:07.149Z,202.65
2018-07-06T19:54:38.849Z,199.68
2018-07-06T19:57:10.709Z,202.50
2018-07-06T19:59:42.042Z,194.80
2018-07-06T20:02:13.582Z,198.00
2018-07-06T20:04:44.770Z,200.70
2018-07-06T20:07:17.000Z,202.65
2018-07-06T20:09:48.524Z,201.85
2018-07-06T20:12:19.935Z,196.78
2018-07-06T20:14:52.613Z,218.05
2018-07-06T20:17:24.096Z,195.32
2018-07-06T20:19:55.340Z,196.57
2018-07-06T20:22:29.248Z,194.45
2018-07-06T20:25:00.628Z,194.80
2018-07-06T20:27:32.830Z,194.45
2018-07-06T20:30:04.442Z,195.87
2018-07-06T20:32:35.908Z,193.97
2018-07-06T20:35:07.225Z,195.18
2018-07-06T20:37:40.298Z,194.05
2018-07-06T20:40:12.131Z,203.77
2018-07-06T20:42:44.348Z,197.90
2018-07-06T20:45:15.769Z,200.47
2018-07-06T20:47:47.888Z,200.40
2018-07-06T20:50:19.362Z,200.78
2018-07-06T20:52:50.676Z,198.62
2018-07-06T20:55:21.961Z,196.02
2018-07-06T20:57:53.639Z,194.20
2018-07-06T21:00:24.990Z,200.40
2018-07-06T21:02:56.468Z,199.55
2018-07-06T21:05:27.744Z,199.17
2018-07-06T21:07:59.553Z,203.88
2018-07-06T21:10:31.106Z,197.07
2018-07-06T21:13:02.843Z,195.80
2018-07-06T21:15:34.249Z,197.85
2018-07-06T21:18:05.631Z,200.15
2018-07-06T21:20:37.038Z,199.40
2018-07-06T21:23:08.907Z,200.47
2018-07-06T21:25:40.688Z,199.00
2018-07-06T21:28:11.948Z,200.87
2018-07-06T21:30:43.287Z,201.70
2018-07-06T21:33:14.968Z,200.13
2018-07-06T21:35:46.390Z,202.05
2018-07-06T21:38:17.856Z,198.17
2018-07-06T21:40:49.150Z,203.27
2018-07-06T21:43:20.679Z,197.13
2018-07-06T21:45:51.767Z,194.80
2018-07-06T21:48:23.933Z,194.32
2018-07-06T21:50:55.193Z,198.05
2018-07-06T21:53:26.623Z,198.45
2018-07-06T21:55:58.108Z,196.45
2018-07-06T21:58:30.011Z,196.20
2018-07-06T22:01:01.428Z,200.97
2018-07-06T22:03:32.869Z,198.55
2018-07-06T22:06:04.368Z,200.70
2018-07-06T22:08:35.631Z,201.58
2018-07-06T22:11:07.028Z,197.75
2018-07-06T22:13:38.485Z,199.55
2018-07-06T22:16:09.734Z,195.07
2018-07-06T22:18:41.108Z,205.12
2018-07-06T22:21:12.409Z,205.37
2018-07-06T22:23:44.688Z,203.50
2018-07-06T22:26:17.156Z,204.13
2018-07-06T22:28:52.056Z,203.80
2018-07-06T22:31:23.834Z,198.90
2018-07-06T22:33:55.289Z,203.20
2018-07-06T22:36:26.537Z,194.70
2018-07-06T22:38:58.648Z,199.42
2018-07-06T22:41:30.143Z,202.90
2018-07-06T22:44:01.790Z,200.15
2018-07-06T22:46:33.178Z,203.42
2018-07-06T22:49:04.748Z,201.18
2018-07-06T22:51:36.282Z,199.15
2018-07-06T22:54:07.599Z,198.97
2018-07-06T22:56:38.907Z,197.22
2018-07-06T22:59:10.152Z,200.85
2018-07-06T23:01:41.786Z,202.18
2018-07-06T23:04:13.456Z,201.25
2018-07-06T23:06:45.168Z,200.25
2018-07-06T23:09:16.425Z,201.12
2018-07-06T23:11:47.790Z,202.95
2018-07-06T23:14:19.004Z,201.60
2018-07-06T23:16:50.445Z,198.93
2018-07-06T23:19:21.976Z,199.65
2018-07-06T23:21:53.464Z,201.35
2018-07-06T23:24:24.730Z,203.42
2018-07-06T23:26:56.110Z,198.10
2018-07-06T23:29:27.580Z,200.00
2018-07-06T23:31:58.896Z,201.02
2018-07-06T23:34:30.419Z,202.70
2018-07-06T23:37:01.737Z,201.05
2018-07-06T23:39:33.165Z,197.57
2018-07-06T23:42:04.563Z,202.13
2018-07-06T23:44:35.942Z,209.95
2018-07-06T23:47:07.187Z,209.27
2018-07-06T23:49:38.821Z,205.67
2018-07-06T23:52:10.411Z,207.27
2018-07-06T23:54:41.762Z,205.52
2018-07-06T23:57:13.082Z,201.27
2018-07-06T23:59:44.302Z,204.28
